Time;durP1;ratioP1;P1;durP2;ratioP2;P2;SDS_P1;SDS_P2;PMS_P1;PMS_P2;Temp;Humidity;BMP_temperature;BMP_pressure;BME280_temperature;BME280_humidity;BME280_pressure;Samples;Min_cycle;Max_cycle;Signal;HPM_P1;HPM_P2
2022/05/15 00:01:02;;;;;;;;;;;10.60;99.90;;;;;;5072613;28;19924;-82
2022/05/15 00:03:28;;;;;;;;;;;10.60;99.90;;;;;;5070395;28;20015;-82
2022/05/15 00:05:55;;;;;;;;;;;10.60;99.90;;;;;;5070572;28;20015;-82
2022/05/15 00:08:21;;;;;;;;;;;10.60;99.90;;;;;;5054505;28;19928;-82
2022/05/15 00:10:47;;;;;;;;;;;10.60;99.90;;;;;;5061312;28;19950;-82
2022/05/15 00:13:13;;;;;;;;;;;10.50;99.90;;;;;;5053853;28;20003;-82
2022/05/15 00:15:39;;;;;;;;;;;10.60;99.90;;;;;;5062475;28;20011;-82
2022/05/15 00:18:05;;;;;;;;;;;10.50;99.90;;;;;;5039208;28;19932;-82
2022/05/15 00:20:31;;;;;;;;;;;10.60;99.90;;;;;;5034455;28;20312;-82
2022/05/15 00:22:56;;;;;;;;;;;10.50;99.90;;;;;;5054198;28;19931;-82
2022/05/15 00:25:22;;;;;;;;;;;10.50;99.90;;;;;;5051736;28;20392;-82
2022/05/15 00:27:48;;;;;;;;;;;10.50;99.90;;;;;;5056094;28;19925;-82
2022/05/15 00:30:14;;;;;;;;;;;10.40;99.90;;;;;;5064279;28;20016;-82
2022/05/15 00:32:39;;;;;;;;;;;10.40;99.90;;;;;;5064497;28;19952;-82
2022/05/15 00:35:05;;;;;;;;;;;10.40;99.90;;;;;;5067532;28;20380;-82
2022/05/15 00:37:31;;;;;;;;;;;10.30;99.90;;;;;;5090441;28;19928;-82
2022/05/15 00:39:57;;;;;;;;;;;10.30;99.90;;;;;;5055308;28;19928;-82
2022/05/15 00:42:23;;;;;;;;;;;10.30;99.90;;;;;;5064607;28;19924;-82
2022/05/15 00:44:49;;;;;;;;;;;10.30;99.90;;;;;;5042377;28;19932;-82
2022/05/15 00:47:14;;;;;;;;;;;10.30;99.90;;;;;;5074138;28;20011;-82
2022/05/15 00:49:40;;;;;;;;;;;10.30;99.90;;;;;;5041608;28;19979;-82
2022/05/15 00:52:09;;;;;;;;;;;10.30;99.90;;;;;;5072012;28;19977;-82
2022/05/15 00:54:36;;;;;;;;;;;10.30;99.90;;;;;;5061997;28;19967;-82
2022/05/15 00:57:08;;;;;;;;;;;10.20;99.90;;;;;;5055691;28;19936;-82
2022/05/15 00:59:42;;;;;;;;;;;10.10;99.90;;;;;;5062492;28;19925;-82
2022/05/15 01:02:11;;;;;;;;;;;10.10;99.90;;;;;;5056883;28;20265;-82
2022/05/15 01:04:37;;;;;;;;;;;10.10;99.90;;;;;;5071874;28;19932;-82
2022/05/15 01:07:03;;;;;;;;;;;10.10;99.90;;;;;;5073631;28;19928;-82
2022/05/15 01:09:29;;;;;;;;;;;10.10;99.90;;;;;;5067380;28;20079;-82
2022/05/15 01:11:55;;;;;;;;;;;10.10;99.90;;;;;;5034535;28;20015;-82
2022/05/15 01:14:21;;;;;;;;;;;10.10;99.90;;;;;;5090103;28;19929;-82
2022/05/15 01:16:47;;;;;;;;;;;10.20;99.90;;;;;;5069440;28;19932;-82
2022/05/15 01:19:13;;;;;;;;;;;10.20;99.90;;;;;;5054682;28;19925;-82
2022/05/15 01:21:40;;;;;;;;;;;10.10;99.90;;;;;;5043507;28;19929;-82
2022/05/15 01:24:07;;;;;;;;;;;10.10;99.90;;;;;;5033969;28;19995;-82
2022/05/15 01:26:34;;;;;;;;;;;10.10;99.90;;;;;;5046496;28;20019;-82
2022/05/15 01:28:59;;;;;;;;;;;10.10;99.90;;;;;;5073679;28;19929;-82
2022/05/15 01:31:25;;;;;;;;;;;10.10;99.90;;;;;;5050895;28;19935;-82
2022/05/15 01:33:51;;;;;;;;;;;10.10;99.90;;;;;;5068478;28;19975;-82
2022/05/15 01:36:21;;;;;;;;;;;10.10;99.90;;;;;;5042541;28;20277;-82
2022/05/15 01:38:47;;;;;;;;;;;10.00;99.90;;;;;;5053851;28;19929;-82
2022/05/15 01:41:13;;;;;;;;;;;10.00;99.90;;;;;;5055293;28;19928;-82
2022/05/15 01:43:43;;;;;;;;;;;10.00;99.90;;;;;;5052516;28;19925;-82
2022/05/15 01:46:10;;;;;;;;;;;10.00;99.90;;;;;;5045536;28;19924;-82
2022/05/15 01:48:35;;;;;;;;;;;10.00;99.90;;;;;;5072466;28;20331;-81
2022/05/15 01:51:01;;;;;;;;;;;10.00;99.90;;;;;;5026540;28;19929;-82
2022/05/15 01:53:26;;;;;;;;;;;9.90;99.90;;;;;;5042020;28;19925;-82
2022/05/15 01:55:52;;;;;;;;;;;9.90;99.90;;;;;;5542747;22;19929;-79
2022/05/15 01:58:18;;;;;;;;;;;9.90;99.90;;;;;;5034270;28;19925;-79
2022/05/15 02:00:43;;;;;;;;;;;9.90;99.90;;;;;;5050507;28;19920;-79
2022/05/15 02:03:09;;;;;;;;;;;10.00;99.90;;;;;;5035542;28;19924;-80
2022/05/15 02:05:34;;;;;;;;;;;9.90;99.90;;;;;;5036431;28;19929;-79
2022/05/15 02:08:00;;;;;;;;;;;9.90;99.90;;;;;;5053451;28;19929;-79
2022/05/15 02:10:25;;;;;;;;;;;9.90;99.90;;;;;;5036105;28;20412;-79
2022/05/15 02:12:51;;;;;;;;;;;9.80;99.90;;;;;;5035065;28;19928;-79
2022/05/15 02:15:17;;;;;;;;;;;9.80;99.90;;;;;;5036145;28;20023;-79
2022/05/15 02:17:42;;;;;;;;;;;9.70;99.90;;;;;;5053428;28;20018;-79
2022/05/15 02:20:10;;;;;;;;;;;9.70;99.90;;;;;;5052954;28;20012;-79
2022/05/15 02:22:36;;;;;;;;;;;9.70;99.90;;;;;;5053369;28;19971;-80
2022/05/15 02:25:02;;;;;;;;;;;9.80;99.90;;;;;;5035718;28;20015;-79
2022/05/15 02:27:28;;;;;;;;;;;9.80;99.90;;;;;;5034424;28;20341;-79
2022/05/15 02:29:53;;;;;;;;;;;9.70;99.90;;;;;;5033171;28;19925;-79
2022/05/15 02:32:19;;;;;;;;;;;9.70;99.90;;;;;;5052661;28;20015;-79
2022/05/15 02:34:44;;;;;;;;;;;9.70;99.90;;;;;;5052091;28;20289;-79
2022/05/15 02:37:10;;;;;;;;;;;9.70;99.90;;;;;;5034543;28;19929;-79
2022/05/15 02:39:36;;;;;;;;;;;9.60;99.90;;;;;;5034532;28;19928;-79
2022/05/15 02:42:01;;;;;;;;;;;9.50;99.90;;;;;;5033879;28;19947;-80
2022/05/15 02:44:28;;;;;;;;;;;9.60;99.90;;;;;;5018195;28;20336;-80
2022/05/15 02:46:54;;;;;;;;;;;9.60;99.90;;;;;;5052731;28;19964;-79
2022/05/15 02:52:03;;;;;;;;;;;9.50;99.90;;;;;;5035240;28;19931;-79
2022/05/15 02:54:29;;;;;;;;;;;9.60;99.90;;;;;;5017901;28;19929;-80
2022/05/15 02:56:55;;;;;;;;;;;9.60;99.90;;;;;;5051818;28;20352;-79
2022/05/15 02:59:20;;;;;;;;;;;9.50;99.90;;;;;;5037932;28;19928;-79
2022/05/15 03:01:46;;;;;;;;;;;9.50;99.90;;;;;;5052462;28;19977;-80
2022/05/15 03:04:12;;;;;;;;;;;9.40;99.90;;;;;;5035227;28;19976;-79
2022/05/15 03:06:37;;;;;;;;;;;9.50;99.90;;;;;;5034904;28;19925;-78
2022/05/15 03:09:03;;;;;;;;;;;9.50;99.90;;;;;;5035134;28;20328;-79
2022/05/15 03:11:28;;;;;;;;;;;9.40;99.90;;;;;;5033509;28;19925;-80
2022/05/15 03:13:54;;;;;;;;;;;9.40;99.90;;;;;;5035051;28;19951;-79
2022/05/15 03:16:19;;;;;;;;;;;9.40;99.90;;;;;;5052571;28;19928;-80
2022/05/15 03:18:46;;;;;;;;;;;9.40;99.90;;;;;;5034832;28;19983;-79
2022/05/15 03:21:28;;;;;;;;;;;9.50;99.90;;;;;;5034282;28;19925;-79
2022/05/15 03:24:04;;;;;;;;;;;9.40;99.90;;;;;;5034255;28;20254;-79
2022/05/15 03:26:31;;;;;;;;;;;9.30;99.90;;;;;;5033932;28;20301;-80
2022/05/15 03:28:57;;;;;;;;;;;9.30;99.90;;;;;;5034897;28;19932;-79
2022/05/15 03:31:22;;;;;;;;;;;9.30;99.90;;;;;;5033824;28;19932;-79
2022/05/15 03:33:48;;;;;;;;;;;9.20;99.90;;;;;;5033533;28;19931;-80
2022/05/15 03:36:15;;;;;;;;;;;9.20;99.90;;;;;;5018189;28;20373;-80
2022/05/15 03:38:42;;;;;;;;;;;9.20;99.90;;;;;;5034650;28;19936;-79
2022/05/15 03:41:08;;;;;;;;;;;9.10;99.90;;;;;;5034322;28;19931;-80
2022/05/15 03:43:34;;;;;;;;;;;9.10;99.90;;;;;;5034208;28;20019;-79
2022/05/15 03:46:00;;;;;;;;;;;9.10;99.90;;;;;;5018516;28;19974;-79
2022/05/15 03:48:26;;;;;;;;;;;9.00;99.90;;;;;;5017664;28;20323;-79
2022/05/15 03:50:51;;;;;;;;;;;9.00;99.90;;;;;;5051804;28;19925;-79
2022/05/15 03:53:17;;;;;;;;;;;9.10;99.90;;;;;;5033987;28;20038;-79
2022/05/15 03:55:42;;;;;;;;;;;9.00;99.90;;;;;;5050928;28;19928;-80
2022/05/15 03:58:08;;;;;;;;;;;9.10;99.90;;;;;;5052239;28;20403;-80
2022/05/15 04:00:34;;;;;;;;;;;9.00;99.90;;;;;;5033932;28;19925;-80
2022/05/15 04:03:00;;;;;;;;;;;9.00;99.90;;;;;;5033792;28;20339;-79
2022/05/15 04:05:25;;;;;;;;;;;9.00;99.90;;;;;;5032550;28;19955;-80
2022/05/15 04:07:51;;;;;;;;;;;9.00;99.90;;;;;;5034476;28;19935;-79
2022/05/15 04:10:18;;;;;;;;;;;9.10;99.90;;;;;;5033326;28;20078;-79
2022/05/15 04:12:44;;;;;;;;;;;9.10;99.90;;;;;;5017742;28;19937;-79
2022/05/15 04:15:10;;;;;;;;;;;9.10;99.90;;;;;;5032942;28;20333;-79
2022/05/15 04:17:40;;;;;;;;;;;9.10;99.90;;;;;;5033363;28;19968;-80
2022/05/15 04:20:06;;;;;;;;;;;9.10;99.90;;;;;;5051466;28;19968;-80
2022/05/15 04:22:32;;;;;;;;;;;9.20;99.90;;;;;;5034399;28;19925;-79
2022/05/15 04:24:58;;;;;;;;;;;9.20;99.90;;;;;;5016781;28;19932;-79
2022/05/15 04:27:24;;;;;;;;;;;9.30;99.90;;;;;;5033585;28;19925;-79
2022/05/15 04:29:50;;;;;;;;;;;9.30;99.90;;;;;;5034020;28;19929;-80
2022/05/15 04:32:16;;;;;;;;;;;9.30;99.90;;;;;;5033381;28;19935;-80
2022/05/15 04:34:42;;;;;;;;;;;9.40;99.90;;;;;;5050485;28;19925;-80
2022/05/15 04:37:07;;;;;;;;;;;9.50;99.90;;;;;;5034213;28;19925;-80
2022/05/15 04:39:34;;;;;;;;;;;9.60;99.90;;;;;;5051082;28;20587;-80
2022/05/15 04:42:00;;;;;;;;;;;9.60;99.90;;;;;;5033641;28;19929;-80
2022/05/15 04:44:26;;;;;;;;;;;9.60;99.90;;;;;;5017522;28;19979;-80
2022/05/15 04:46:52;;;;;;;;;;;9.70;99.90;;;;;;5032787;28;19967;-80
2022/05/15 04:49:17;;;;;;;;;;;9.70;99.90;;;;;;5051055;28;19959;-80
2022/05/15 04:51:43;;;;;;;;;;;9.80;99.90;;;;;;5017221;28;19928;-80
2022/05/15 04:54:08;;;;;;;;;;;9.80;99.90;;;;;;5033480;28;19932;-80
2022/05/15 04:56:34;;;;;;;;;;;9.80;99.90;;;;;;5032580;28;19932;-80
2022/05/15 04:59:00;;;;;;;;;;;9.80;99.90;;;;;;5033684;28;19936;-80
2022/05/15 05:01:27;;;;;;;;;;;9.90;99.90;;;;;;5016266;28;19932;-79
2022/05/15 05:03:54;;;;;;;;;;;9.90;99.90;;;;;;5033781;28;19982;-80
2022/05/15 05:06:20;;;;;;;;;;;10.00;99.90;;;;;;5033415;28;19925;-79
2022/05/15 05:08:45;;;;;;;;;;;10.00;99.90;;;;;;5000862;28;19959;-80
2022/05/15 05:11:11;;;;;;;;;;;10.10;99.90;;;;;;5015914;28;19929;-81
2022/05/15 05:13:36;;;;;;;;;;;10.10;99.90;;;;;;5016236;28;19964;-80
2022/05/15 05:16:02;;;;;;;;;;;10.20;99.90;;;;;;5031824;28;19924;-77
2022/05/15 05:18:28;;;;;;;;;;;10.20;99.90;;;;;;5054084;28;20020;-79
2022/05/15 05:20:53;;;;;;;;;;;10.30;99.90;;;;;;5036850;28;20369;-78
2022/05/15 05:23:19;;;;;;;;;;;10.30;99.90;;;;;;5036175;28;19933;-76
2022/05/15 05:25:44;;;;;;;;;;;10.40;99.90;;;;;;5036393;28;19924;-79
2022/05/15 05:28:10;;;;;;;;;;;10.50;99.90;;;;;;5054176;28;19968;-78
2022/05/15 05:30:37;;;;;;;;;;;10.50;99.90;;;;;;5052448;28;19928;-79
2022/05/15 05:33:03;;;;;;;;;;;10.60;99.90;;;;;;5051389;28;19925;-77
2022/05/15 05:35:29;;;;;;;;;;;10.60;99.90;;;;;;5053333;28;19933;-77
2022/05/15 05:37:55;;;;;;;;;;;10.70;99.90;;;;;;5052112;28;19941;-78
2022/05/15 05:40:20;;;;;;;;;;;10.80;99.90;;;;;;5055369;28;19928;-76
2022/05/15 05:42:46;;;;;;;;;;;10.90;99.90;;;;;;5035756;28;19928;-78
2022/05/15 05:45:12;;;;;;;;;;;11.00;99.90;;;;;;5053798;28;20368;-78
2022/05/15 05:47:38;;;;;;;;;;;11.00;99.90;;;;;;5053808;28;19947;-77
2022/05/15 05:50:08;;;;;;;;;;;11.10;99.90;;;;;;5018731;28;20424;-77
2022/05/15 05:52:35;;;;;;;;;;;11.20;99.90;;;;;;5036290;28;19979;-81
2022/05/15 05:55:00;;;;;;;;;;;11.20;99.90;;;;;;5051120;28;20032;-78
2022/05/15 05:57:26;;;;;;;;;;;11.30;99.90;;;;;;5035258;28;19999;-76
2022/05/15 05:59:51;;;;;;;;;;;11.40;99.90;;;;;;5036072;28;19960;-77
2022/05/15 06:02:17;;;;;;;;;;;11.50;99.90;;;;;;5014073;28;20019;-75
2022/05/15 06:04:44;;;;;;;;;;;11.50;99.90;;;;;;5053633;28;19929;-77
2022/05/15 06:07:14;;;;;;;;;;;11.60;99.90;;;;;;5053181;28;20004;-76
2022/05/15 06:09:42;;;;;;;;;;;11.70;99.90;;;;;;5054228;28;19929;-77
2022/05/15 06:12:08;;;;;;;;;;;11.80;99.90;;;;;;5053696;28;19925;-76
2022/05/15 06:14:33;;;;;;;;;;;11.80;99.90;;;;;;5053521;28;19978;-76
2022/05/15 06:16:59;;;;;;;;;;;11.90;99.90;;;;;;5052881;28;20012;-75
2022/05/15 06:19:25;;;;;;;;;;;12.00;99.90;;;;;;5053654;28;20388;-74
2022/05/15 06:21:50;;;;;;;;;;;12.10;99.90;;;;;;5035940;28;20331;-77
2022/05/15 06:24:16;;;;;;;;;;;12.20;99.90;;;;;;5035031;28;19925;-77
2022/05/15 06:26:41;;;;;;;;;;;12.30;99.90;;;;;;5035989;28;19947;-79
2022/05/15 06:29:07;;;;;;;;;;;12.40;99.90;;;;;;5051497;28;19929;-78
2022/05/15 06:31:33;;;;;;;;;;;12.40;99.90;;;;;;5035349;28;19932;-75
2022/05/15 06:33:58;;;;;;;;;;;12.50;99.90;;;;;;5052212;28;19979;-75
2022/05/15 06:36:24;;;;;;;;;;;12.60;99.90;;;;;;5035831;28;19972;-79
2022/05/15 06:38:49;;;;;;;;;;;12.70;99.90;;;;;;5053694;28;19935;-74
2022/05/15 06:41:15;;;;;;;;;;;12.80;99.90;;;;;;5018994;28;19925;-75
2022/05/15 06:43:41;;;;;;;;;;;12.90;99.90;;;;;;5019920;28;20376;-75
2022/05/15 06:46:06;;;;;;;;;;;13.00;99.90;;;;;;5052938;28;19925;-75
2022/05/15 06:48:33;;;;;;;;;;;13.00;99.90;;;;;;5053998;28;20269;-75
2022/05/15 06:50:59;;;;;;;;;;;13.10;99.90;;;;;;5035484;28;19935;-75
2022/05/15 06:53:25;;;;;;;;;;;13.20;99.90;;;;;;5053332;28;19924;-75
2022/05/15 06:58:35;;;;;;;;;;;13.40;99.90;;;;;;5035930;28;19925;-76
2022/05/15 07:01:00;;;;;;;;;;;13.60;99.90;;;;;;5053050;28;19929;-77
2022/05/15 07:03:27;;;;;;;;;;;13.60;99.90;;;;;;5053628;28;19931;-76
2022/05/15 07:05:52;;;;;;;;;;;13.80;99.90;;;;;;5053483;28;19924;-76
2022/05/15 07:08:18;;;;;;;;;;;13.80;99.90;;;;;;5052304;28;20266;-75
2022/05/15 07:10:44;;;;;;;;;;;13.90;99.90;;;;;;5053005;28;19968;-76
2022/05/15 07:13:10;;;;;;;;;;;13.90;99.90;;;;;;5052658;28;19968;-76
2022/05/15 07:15:37;;;;;;;;;;;14.00;99.90;;;;;;5034595;28;20361;-77
2022/05/15 07:18:03;;;;;;;;;;;14.10;99.90;;;;;;5035169;28;19940;-76
2022/05/15 07:20:29;;;;;;;;;;;14.30;99.90;;;;;;5036166;28;19979;-75
2022/05/15 07:22:54;;;;;;;;;;;14.30;99.90;;;;;;5050473;28;19956;-77
2022/05/15 07:25:20;;;;;;;;;;;14.40;99.90;;;;;;5037779;28;19948;-77
2022/05/15 07:27:46;;;;;;;;;;;14.50;99.90;;;;;;5050951;28;19928;-76
2022/05/15 07:30:12;;;;;;;;;;;14.60;99.90;;;;;;5051144;28;19925;-77
2022/05/15 07:32:37;;;;;;;;;;;14.70;99.90;;;;;;5037451;28;20310;-77
2022/05/15 07:35:03;;;;;;;;;;;14.80;99.90;;;;;;5050644;28;19924;-77
2022/05/15 07:37:29;;;;;;;;;;;14.90;99.90;;;;;;5047293;28;19994;-75
2022/05/15 07:39:54;;;;;;;;;;;15.00;99.90;;;;;;5033132;28;19925;-76
2022/05/15 07:42:20;;;;;;;;;;;15.10;99.90;;;;;;5050910;28;19925;-76
2022/05/15 07:44:47;;;;;;;;;;;15.20;99.90;;;;;;5052209;28;19925;-74
2022/05/15 07:47:13;;;;;;;;;;;15.30;99.90;;;;;;5048764;28;19925;-75
2022/05/15 07:49:39;;;;;;;;;;;15.40;99.90;;;;;;5051865;28;19924;-75
2022/05/15 07:52:06;;;;;;;;;;;15.50;99.90;;;;;;5051688;28;19925;-76
2022/05/15 07:54:33;;;;;;;;;;;15.60;99.90;;;;;;5052330;28;19925;-76
2022/05/15 07:56:59;;;;;;;;;;;15.70;99.90;;;;;;5051542;28;19928;-76
2022/05/15 07:59:24;;;;;;;;;;;15.70;99.90;;;;;;5051553;28;19925;-76
2022/05/15 08:01:54;;;;;;;;;;;15.80;99.90;;;;;;5034778;28;19950;-75
2022/05/15 08:04:20;;;;;;;;;;;15.90;99.90;;;;;;5034528;28;19929;-75
2022/05/15 08:09:30;;;;;;;;;;;16.10;99.90;;;;;;5051672;28;20412;-75
2022/05/15 08:11:55;;;;;;;;;;;16.20;99.90;;;;;;5052283;28;19929;-76
2022/05/15 08:14:21;;;;;;;;;;;16.30;99.90;;;;;;5033870;28;20672;-76
2022/05/15 08:16:47;;;;;;;;;;;16.40;99.90;;;;;;5051843;28;19925;-76
2022/05/15 08:24:41;;;;;;;;;;;16.70;99.90;;;;;;5051715;28;19929;-77
2022/05/15 08:27:06;;;;;;;;;;;16.80;99.90;;;;;;5051581;28;20003;-76
2022/05/15 08:29:32;;;;;;;;;;;16.90;99.90;;;;;;5051099;28;19925;-76
2022/05/15 08:31:58;;;;;;;;;;;17.00;99.90;;;;;;5017635;28;19925;-76
2022/05/15 08:34:23;;;;;;;;;;;17.10;99.90;;;;;;5051568;28;19983;-76
2022/05/15 08:36:49;;;;;;;;;;;17.20;99.90;;;;;;5051175;28;19940;-76
2022/05/15 08:39:15;;;;;;;;;;;17.30;99.90;;;;;;5051554;28;19924;-76
2022/05/15 08:42:06;;;;;;;;;;;17.30;99.90;;;;;;5052019;28;20345;-77
2022/05/15 08:44:39;;;;;;;;;;;17.40;99.90;;;;;;5033743;28;19924;-76
2022/05/15 08:47:14;;;;;;;;;;;17.50;99.90;;;;;;5017712;28;19925;-81
2022/05/15 08:49:41;;;;;;;;;;;17.60;99.90;;;;;;5033414;28;19990;-76
2022/05/15 08:52:17;;;;;;;;;;;17.70;99.90;;;;;;5052042;28;19924;-76
2022/05/15 08:54:49;;;;;;;;;;;17.80;99.90;;;;;;5055864;28;19925;-76
2022/05/15 08:57:17;;;;;;;;;;;17.80;99.90;;;;;;5037480;28;19929;-76
2022/05/15 08:59:51;;;;;;;;;;;17.90;99.90;;;;;;5054756;28;19936;-76
2022/05/15 09:02:16;;;;;;;;;;;17.90;99.90;;;;;;5037466;28;19975;-76
2022/05/15 09:04:42;;;;;;;;;;;18.10;99.90;;;;;;5055393;28;19928;-76
2022/05/15 09:07:22;;;;;;;;;;;18.10;99.90;;;;;;5054689;28;20007;-78
2022/05/15 09:09:50;;;;;;;;;;;18.20;99.90;;;;;;5055039;28;19931;-77
2022/05/15 09:12:21;;;;;;;;;;;18.30;99.90;;;;;;5035618;28;19928;-76
2022/05/15 09:15:00;;;;;;;;;;;18.50;99.90;;;;;;5037808;28;19978;-80
2022/05/15 09:17:35;;;;;;;;;;;18.50;99.90;;;;;;5020516;28;20028;-79
2022/05/15 09:20:05;;;;;;;;;;;18.50;99.90;;;;;;5036827;28;20015;-81
2022/05/15 09:22:33;;;;;;;;;;;18.60;99.90;;;;;;5036790;28;19951;-79
2022/05/15 09:25:02;;;;;;;;;;;18.70;99.90;;;;;;5037578;28;20305;-79
2022/05/15 09:27:28;;;;;;;;;;;18.70;99.90;;;;;;5054170;28;20313;-79
2022/05/15 09:29:58;;;;;;;;;;;18.80;99.90;;;;;;5037393;28;19925;-79
2022/05/15 09:32:26;;;;;;;;;;;18.90;99.90;;;;;;5053910;28;20257;-79
2022/05/15 09:34:52;;;;;;;;;;;19.00;99.90;;;;;;5054215;28;20707;-79
2022/05/15 09:40:11;;;;;;;;;;;19.20;99.90;;;;;;5051244;28;19932;-80
2022/05/15 09:45:27;;;;;;;;;;;19.40;99.90;;;;;;5052297;28;19940;-75
2022/05/15 09:47:52;;;;;;;;;;;19.60;99.90;;;;;;5035943;28;19925;-76
2022/05/15 09:50:53;;;;;;;;;;;19.80;99.90;;;;;;5050166;28;19925;-76
2022/05/15 09:53:20;;;;;;;;;;;19.80;99.90;;;;;;4926305;29;19934;-76
2022/05/15 09:55:56;;;;;;;;;;;20.00;99.90;;;;;;5011714;28;19937;-76
2022/05/15 09:58:22;;;;;;;;;;;20.20;99.90;;;;;;5053296;28;19970;-76
2022/05/15 10:00:48;;;;;;;;;;;20.30;99.90;;;;;;5053764;28;20427;-76
2022/05/15 10:03:20;;;;;;;;;;;20.50;99.90;;;;;;5019489;28;19931;-75
2022/05/15 10:05:55;;;;;;;;;;;20.60;99.90;;;;;;5035342;28;20347;-75
2022/05/15 10:08:22;;;;;;;;;;;20.70;99.90;;;;;;5053199;28;20064;-75
2022/05/15 10:10:54;;;;;;;;;;;20.80;99.90;;;;;;5053693;28;19931;-76
2022/05/15 10:13:34;;;;;;;;;;;20.90;99.90;;;;;;5035651;28;20559;-75
2022/05/15 10:16:05;;;;;;;;;;;20.80;99.90;;;;;;5053940;28;20022;-75
2022/05/15 10:18:34;;;;;;;;;;;21.00;99.90;;;;;;5035687;28;19933;-75
2022/05/15 10:21:00;;;;;;;;;;;21.20;99.90;;;;;;5053239;28;19931;-75
2022/05/15 10:23:30;;;;;;;;;;;21.20;99.90;;;;;;5053523;28;19936;-75
2022/05/15 10:25:58;;;;;;;;;;;21.30;99.90;;;;;;5053783;28;20375;-75
2022/05/15 10:28:37;;;;;;;;;;;21.40;99.90;;;;;;5052597;28;19925;-76
2022/05/15 10:31:14;;;;;;;;;;;21.50;99.90;;;;;;5046620;28;19968;-76
2022/05/15 10:33:41;;;;;;;;;;;21.50;99.90;;;;;;5051100;28;19935;-76
2022/05/15 10:36:19;;;;;;;;;;;21.50;99.90;;;;;;5052030;28;19933;-76
2022/05/15 10:39:03;;;;;;;;;;;21.60;99.90;;;;;;5033319;28;20292;-77
2022/05/15 10:41:38;;;;;;;;;;;21.70;99.90;;;;;;5033607;28;19928;-76
2022/05/15 10:44:13;;;;;;;;;;;21.70;99.90;;;;;;5034466;28;20312;-76
2022/05/15 10:47:05;;;;;;;;;;;21.60;99.90;;;;;;5050678;28;20015;-76
2022/05/15 10:49:30;;;;;;;;;;;21.80;99.90;;;;;;5051442;28;20379;-76
2022/05/15 10:52:05;;;;;;;;;;;21.80;99.90;;;;;;5034791;28;19937;-77
2022/05/15 10:57:47;;;;;;;;;;;22.00;99.90;;;;;;5032400;28;19964;-79
2022/05/15 11:00:22;;;;;;;;;;;22.10;99.90;;;;;;5036985;28;19939;-77
2022/05/15 11:02:59;;;;;;;;;;;22.10;99.90;;;;;;5052081;28;19924;-78
2022/05/15 11:05:26;;;;;;;;;;;22.30;99.90;;;;;;5049579;28;20363;-78
2022/05/15 11:07:58;;;;;;;;;;;22.30;99.90;;;;;;5052005;28;19972;-78
2022/05/15 11:10:41;;;;;;;;;;;22.30;99.90;;;;;;5051736;28;19932;-78
2022/05/15 11:13:17;;;;;;;;;;;22.40;99.90;;;;;;5052874;28;19932;-78
2022/05/15 11:16:00;;;;;;;;;;;22.50;99.90;;;;;;5051667;28;19924;-83
2022/05/15 11:18:41;;;;;;;;;;;22.50;99.90;;;;;;5034757;28;20373;-81
2022/05/15 11:21:10;;;;;;;;;;;22.50;98.50;;;;;;5035114;28;19982;-78
2022/05/15 11:23:53;;;;;;;;;;;22.70;98.80;;;;;;5051828;28;20411;-79
2022/05/15 11:26:22;;;;;;;;;;;22.90;98.10;;;;;;5052251;28;19984;-76
2022/05/15 11:28:50;;;;;;;;;;;23.10;98.80;;;;;;5048472;28;19925;-77
2022/05/15 11:31:18;;;;;;;;;;;23.10;97.80;;;;;;5035575;28;19929;-77
2022/05/15 11:34:02;;;;;;;;;;;23.10;97.60;;;;;;5038479;28;19925;-79
2022/05/15 11:36:45;;;;;;;;;;;23.10;96.50;;;;;;5052034;28;20373;-79
2022/05/15 11:39:13;;;;;;;;;;;22.90;97.80;;;;;;5031188;28;19993;-79
2022/05/15 11:42:09;;;;;;;;;;;22.90;98.20;;;;;;5033659;28;20026;-79
2022/05/15 11:44:35;;;;;;;;;;;23.00;97.00;;;;;;5033378;28;20015;-80
2022/05/15 11:47:03;;;;;;;;;;;22.80;96.20;;;;;;5051418;28;20062;-79
2022/05/15 11:49:34;;;;;;;;;;;22.80;97.60;;;;;;5051404;28;19924;-79
2022/05/15 11:52:06;;;;;;;;;;;23.00;98.30;;;;;;5051497;28;19936;-79
2022/05/15 11:54:36;;;;;;;;;;;23.30;98.00;;;;;;5051475;28;19925;-80
2022/05/15 11:57:03;;;;;;;;;;;23.40;95.50;;;;;;5051605;28;19924;-79
2022/05/15 11:59:32;;;;;;;;;;;23.60;95.70;;;;;;5032874;28;20020;-79
2022/05/15 12:01:59;;;;;;;;;;;23.70;96.10;;;;;;5016408;28;20282;-80
2022/05/15 12:04:25;;;;;;;;;;;23.80;95.70;;;;;;5052101;28;19931;-79
2022/05/15 12:06:56;;;;;;;;;;;23.90;95.30;;;;;;5049646;28;19933;-80
2022/05/15 12:09:22;;;;;;;;;;;23.70;93.40;;;;;;5052143;28;20003;-79
2022/05/15 12:11:49;;;;;;;;;;;23.80;94.00;;;;;;5051992;28;19925;-78
2022/05/15 12:14:27;;;;;;;;;;;23.90;96.00;;;;;;5051663;28;20007;-78
2022/05/15 12:17:04;;;;;;;;;;;24.00;95.90;;;;;;5051752;28;19974;-82
2022/05/15 12:19:35;;;;;;;;;;;24.30;97.00;;;;;;5034677;28;20023;-79
2022/05/15 12:22:02;;;;;;;;;;;24.80;95.10;;;;;;5034462;28;19928;-80
2022/05/15 12:24:29;;;;;;;;;;;24.90;94.70;;;;;;5034048;28;20011;-82
2022/05/15 12:26:55;;;;;;;;;;;25.10;94.70;;;;;;5036455;28;19986;-80
2022/05/15 12:29:50;;;;;;;;;;;25.20;94.90;;;;;;5054526;28;19968;-80
2022/05/15 12:32:22;;;;;;;;;;;25.40;95.30;;;;;;5004021;28;19928;-80
2022/05/15 12:34:49;;;;;;;;;;;25.70;95.20;;;;;;5036707;28;20396;-80
2022/05/15 12:37:22;;;;;;;;;;;25.70;94.20;;;;;;5035882;28;20304;-80
2022/05/15 12:39:49;;;;;;;;;;;25.60;92.50;;;;;;5037725;28;19983;-80
2022/05/15 12:42:23;;;;;;;;;;;25.60;92.40;;;;;;5055200;28;20432;-80
2022/05/15 12:45:05;;;;;;;;;;;25.80;93.40;;;;;;5053708;28;19925;-80
2022/05/15 12:47:34;;;;;;;;;;;25.80;92.50;;;;;;5054068;28;19936;-81
2022/05/15 12:50:02;;;;;;;;;;;25.90;94.00;;;;;;5037879;28;20379;-79
2022/05/15 12:52:29;;;;;;;;;;;25.70;92.10;;;;;;5036085;28;19925;-80
2022/05/15 12:54:56;;;;;;;;;;;25.70;92.80;;;;;;5055403;28;19975;-80
2022/05/15 12:57:22;;;;;;;;;;;25.80;92.90;;;;;;5036583;28;19972;-80
2022/05/15 12:59:49;;;;;;;;;;;25.90;92.80;;;;;;5036311;28;19964;-80
2022/05/15 13:02:24;;;;;;;;;;;25.90;92.00;;;;;;5053604;28;19925;-81
2022/05/15 13:04:54;;;;;;;;;;;25.90;92.70;;;;;;5051887;28;19960;-80
2022/05/15 13:07:24;;;;;;;;;;;26.20;93.30;;;;;;5037207;28;20015;-80
2022/05/15 13:09:57;;;;;;;;;;;26.30;91.70;;;;;;5036392;28;20314;-81
2022/05/15 13:12:23;;;;;;;;;;;26.20;91.50;;;;;;5036092;28;19940;-80
2022/05/15 13:14:49;;;;;;;;;;;25.90;91.70;;;;;;5033700;28;19925;-77
2022/05/15 13:17:19;;;;;;;;;;;25.80;91.20;;;;;;5037186;28;19948;-79
2022/05/15 13:19:47;;;;;;;;;;;25.70;91.50;;;;;;5020019;28;20422;-76
2022/05/15 13:22:18;;;;;;;;;;;25.60;91.50;;;;;;5016692;28;20361;-77
2022/05/15 13:24:43;;;;;;;;;;;25.70;92.00;;;;;;5027384;28;19974;-77
2022/05/15 13:27:10;;;;;;;;;;;25.70;91.90;;;;;;5007163;28;19929;-76
2022/05/15 13:29:37;;;;;;;;;;;25.60;91.90;;;;;;5026026;28;20359;-77
2022/05/15 13:32:04;;;;;;;;;;;25.60;92.20;;;;;;5024122;28;20015;-78
2022/05/15 13:34:30;;;;;;;;;;;25.50;91.70;;;;;;5016909;28;19932;-76
2022/05/15 13:36:57;;;;;;;;;;;25.40;91.10;;;;;;5035168;28;19925;-81
2022/05/15 13:44:54;;;;;;;;;;;25.30;91.70;;;;;;5016178;28;19929;-80
2022/05/15 13:47:22;;;;;;;;;;;25.50;91.80;;;;;;5035314;28;19935;-80
2022/05/15 13:49:53;;;;;;;;;;;25.60;91.30;;;;;;5019299;28;20043;-79
2022/05/15 13:52:24;;;;;;;;;;;25.60;90.40;;;;;;5029213;28;19932;-81
2022/05/15 13:54:50;;;;;;;;;;;25.60;89.20;;;;;;5029087;28;19947;-83
2022/05/15 13:57:15;;;;;;;;;;;25.80;90.70;;;;;;5045013;28;19933;-85
2022/05/15 13:59:43;;;;;;;;;;;26.00;90.20;;;;;;5028454;28;19924;-81
2022/05/15 14:02:11;;;;;;;;;;;26.10;87.40;;;;;;5027558;28;20387;-81
2022/05/15 14:04:39;;;;;;;;;;;26.10;88.10;;;;;;5028592;28;19933;-82
2022/05/15 14:07:05;;;;;;;;;;;26.10;87.40;;;;;;5029312;28;19924;-80
2022/05/15 14:09:49;;;;;;;;;;;26.30;85.30;;;;;;5035182;28;19933;-80
2022/05/15 14:12:16;;;;;;;;;;;26.40;85.70;;;;;;5033723;28;19925;-78
2022/05/15 14:14:41;;;;;;;;;;;26.50;82.90;;;;;;5015940;28;19929;-81
2022/05/15 14:17:09;;;;;;;;;;;26.70;80.30;;;;;;5035225;28;20285;-80
2022/05/15 14:19:45;;;;;;;;;;;26.80;82.20;;;;;;5037676;28;20289;-78
2022/05/15 14:22:11;;;;;;;;;;;26.90;78.20;;;;;;5033078;28;19933;-80
2022/05/15 14:24:38;;;;;;;;;;;27.00;75.50;;;;;;4999667;28;19926;-78
2022/05/15 14:27:03;;;;;;;;;;;27.20;76.60;;;;;;5033368;28;19979;-78
2022/05/15 14:29:29;;;;;;;;;;;27.10;72.30;;;;;;5038554;28;19968;-76
2022/05/15 14:32:00;;;;;;;;;;;26.90;72.70;;;;;;5033203;28;19921;-77
2022/05/15 14:34:26;;;;;;;;;;;26.90;74.10;;;;;;5025871;28;19929;-78
2022/05/15 14:36:52;;;;;;;;;;;26.90;72.60;;;;;;5036182;28;19929;-80
2022/05/15 14:39:17;;;;;;;;;;;26.60;74.40;;;;;;5052393;28;19929;-75
2022/05/15 14:41:43;;;;;;;;;;;26.30;72.30;;;;;;5004755;28;19929;-77
2022/05/15 14:44:08;;;;;;;;;;;25.90;74.40;;;;;;5053333;28;19940;-76
2022/05/15 14:46:34;;;;;;;;;;;25.50;76.10;;;;;;5035498;28;19924;-75
2022/05/15 14:49:00;;;;;;;;;;;25.40;78.30;;;;;;5052640;28;19925;-75
2022/05/15 14:51:27;;;;;;;;;;;25.10;79.10;;;;;;5034453;28;19935;-74